Time;durP1;ratioP1;P1;durP2;ratioP2;P2;SDS_P1;SDS_P2;PMS_P1;PMS_P2;Temp;Humidity;BMP_temperature;BMP_pressure;BME280_temperature;BME280_humidity;BME280_pressure;Samples;Min_cycle;Max_cycle;Signal;HPM_P1;HPM_P2
2022/03/15 00:01:56;;;;;;;35.45;25.83;;;8.40;99.90;;;8.47;81.08;102282.31;4953126;29;20184;-70
2022/03/15 00:04:26;;;;;;;33.72;25.10;;;8.40;99.90;;;8.44;80.88;102280.75;4953126;29;20580;-70
2022/03/15 00:06:58;;;;;;;39.03;26.15;;;8.40;99.90;;;8.42;81.02;102284.63;4951975;29;20270;-70
2022/03/15 00:09:28;;;;;;;34.03;27.00;;;8.40;99.90;;;8.39;80.94;102285.75;4950759;28;20310;-70
2022/03/15 00:12:00;;;;;;;34.85;27.38;;;8.40;99.90;;;8.36;81.10;102280.69;4951958;29;20168;-70
2022/03/15 00:14:29;;;;;;;36.58;26.35;;;8.30;99.90;;;8.31;81.44;102287.53;4952627;29;20643;-70
2022/03/15 00:16:58;;;;;;;34.47;27.15;;;8.30;99.90;;;8.40;81.17;102292.00;4952380;29;20250;-70
2022/03/15 00:19:27;;;;;;;36.28;25.85;;;8.30;99.90;;;8.34;81.24;102279.97;4952151;28;20631;-71
2022/03/15 00:21:56;;;;;;;30.55;23.33;;;8.30;99.90;;;8.37;81.14;102287.78;4952143;29;20698;-70
2022/03/15 00:24:25;;;;;;;38.60;26.95;;;8.30;99.90;;;8.26;81.01;102286.13;4952776;29;20746;-70
2022/03/15 00:26:58;;;;;;;34.10;26.25;;;8.30;99.90;;;8.32;80.73;102286.53;4952171;29;20169;-69
2022/03/15 00:29:27;;;;;;;35.75;25.15;;;8.20;99.90;;;8.16;81.26;102281.78;4951928;28;20208;-69
2022/03/15 00:31:57;;;;;;;29.15;23.70;;;8.20;99.90;;;8.08;81.54;102289.81;4952157;29;20560;-70
2022/03/15 00:34:27;;;;;;;37.40;24.05;;;8.10;99.90;;;8.02;81.75;102293.09;4934963;29;20670;-68
2022/03/15 00:36:56;;;;;;;29.83;24.23;;;8.00;99.90;;;8.02;81.73;102285.00;4951680;29;20262;-69
2022/03/15 00:39:26;;;;;;;32.75;23.52;;;8.00;99.90;;;7.94;82.09;102274.97;4952315;28;20290;-70
2022/03/15 00:41:58;;;;;;;34.50;24.05;;;8.00;99.90;;;8.02;81.93;102282.31;4951761;29;20172;-69
2022/03/15 00:44:26;;;;;;;29.63;23.02;;;8.00;99.90;;;8.03;81.75;102279.47;4952019;29;20441;-69
2022/03/15 00:46:55;;;;;;;31.20;23.58;;;8.00;99.90;;;7.99;81.53;102286.16;4952091;29;20200;-70
2022/03/15 00:49:24;;;;;;;30.98;25.15;;;8.00;99.90;;;7.93;81.81;102284.09;4951973;28;20207;-70
2022/03/15 00:51:55;;;;;;;31.23;22.35;;;7.90;99.90;;;7.94;82.21;102282.25;4934475;29;20192;-70
2022/03/15 00:54:24;;;;;;;39.40;25.60;;;7.90;99.90;;;7.97;81.97;102268.44;4952498;28;20196;-69
2022/03/15 00:56:53;;;;;;;32.30;22.75;;;7.90;99.90;;;8.03;81.61;102276.78;4938078;29;20250;-69
2022/03/15 00:59:23;;;;;;;33.53;22.30;;;8.00;99.90;;;7.98;81.67;102286.31;4938632;28;20696;-71
2022/03/15 01:01:52;;;;;;;32.85;23.50;;;8.00;99.90;;;7.91;81.77;102291.47;4955485;29;20187;-71
2022/03/15 01:04:22;;;;;;;33.00;23.13;;;7.90;99.90;;;7.96;81.81;102289.16;4955352;29;20195;-69
2022/03/15 01:06:51;;;;;;;29.63;22.90;;;7.90;99.90;;;7.96;82.11;102283.75;4955180;29;20615;-69
2022/03/15 01:09:20;;;;;;;33.92;23.65;;;7.90;99.90;;;8.05;81.46;102282.00;4955052;28;20652;-71
2022/03/15 01:11:51;;;;;;;33.78;23.02;;;8.00;99.90;;;8.12;81.21;102281.25;4938476;29;20255;-70
2022/03/15 01:14:22;;;;;;;35.63;23.23;;;8.10;99.90;;;8.17;80.92;102275.41;4955714;29;20176;-70
2022/03/15 01:16:51;;;;;;;34.03;25.15;;;8.10;99.90;;;8.08;81.05;102271.78;4939017;29;20641;-71
2022/03/15 01:19:20;;;;;;;32.05;22.75;;;8.00;99.90;;;7.95;81.66;102276.66;4955428;28;20218;-70
2022/03/15 01:21:52;;;;;;;33.17;22.08;;;7.90;99.90;;;7.96;81.23;102266.75;4955212;29;20172;-70
2022/03/15 01:24:21;;;;;;;31.80;24.17;;;7.90;99.90;;;7.97;81.23;102263.06;4953725;29;20207;-70
2022/03/15 01:26:51;;;;;;;36.65;23.90;;;8.00;99.90;;;7.91;81.58;102274.44;4955350;29;20605;-70
2022/03/15 01:29:22;;;;;;;28.50;22.60;;;7.90;99.90;;;7.95;81.52;102284.75;4937726;29;20211;-71
2022/03/15 01:31:52;;;;;;;34.75;24.30;;;7.90;99.90;;;8.00;81.19;102282.47;4953716;29;20674;-72
2022/03/15 01:34:23;;;;;;;29.92;22.35;;;7.90;99.90;;;7.94;81.41;102291.16;4954709;29;20192;-70
2022/03/15 01:36:52;;;;;;;29.25;21.70;;;7.90;99.90;;;7.93;81.58;102289.47;4954905;29;20199;-69
2022/03/15 01:39:21;;;;;;;34.97;22.33;;;7.90;99.90;;;7.91;81.53;102291.47;4937450;29;20242;-70
2022/03/15 01:41:52;;;;;;;35.30;23.30;;;7.90;99.90;;;7.85;81.72;102292.06;4954437;29;20652;-70
2022/03/15 01:44:26;;;;;;;32.40;23.30;;;7.80;99.90;;;7.86;81.43;102293.75;4954616;29;20247;-70
2022/03/15 01:46:55;;;;;;;31.45;22.45;;;7.80;99.90;;;7.89;81.45;102293.44;4937059;29;20182;-72
2022/03/15 01:49:24;;;;;;;31.95;23.08;;;7.80;99.90;;;7.97;80.67;102288.16;4936892;29;20298;-70
2022/03/15 01:51:53;;;;;;;31.70;23.20;;;7.90;99.90;;;8.01;80.79;102294.94;4937351;29;20643;-69
2022/03/15 01:54:24;;;;;;;35.00;24.60;;;8.00;99.90;;;8.02;80.61;102298.50;4952831;29;20196;-69
2022/03/15 01:56:53;;;;;;;28.00;22.67;;;7.90;99.90;;;7.98;80.57;102295.25;4936879;29;20272;-70
2022/03/15 01:59:23;;;;;;;30.17;21.45;;;8.00;99.90;;;8.04;80.45;102291.09;4936722;29;20220;-71
2022/03/15 02:01:53;;;;;;;26.80;20.20;;;8.00;99.90;;;8.03;80.81;102298.34;4936832;29;20192;-69
2022/03/15 02:04:21;;;;;;;29.17;21.80;;;8.00;99.90;;;8.00;80.63;102300.47;4953730;28;20203;-72
2022/03/15 02:07:02;;;;;;;29.42;22.73;;;8.00;99.90;;;7.92;81.10;102293.16;4954944;29;20286;-70
2022/03/15 02:09:31;;;;;;;33.35;22.48;;;7.90;99.90;;;8.10;80.07;102291.34;4954309;28;20208;-70
2022/03/15 02:12:00;;;;;;;31.17;22.23;;;8.00;99.90;;;8.14;80.10;102308.91;4954499;29;20546;-70
2022/03/15 02:14:31;;;;;;;32.63;21.67;;;8.10;99.90;;;8.07;80.23;102307.84;4954225;29;20207;-69
2022/03/15 02:17:00;;;;;;;30.80;21.70;;;8.00;99.90;;;8.00;80.33;102306.72;4954664;29;20200;-70
2022/03/15 02:19:29;;;;;;;30.38;22.58;;;8.00;99.90;;;8.00;80.61;102312.13;4952816;28;20301;-70
2022/03/15 02:22:00;;;;;;;38.40;23.65;;;7.90;99.90;;;7.97;80.34;102312.44;4937019;29;20223;-70
2022/03/15 02:24:30;;;;;;;37.17;22.52;;;7.90;99.90;;;7.97;80.43;102311.56;4954359;29;20177;-70
2022/03/15 02:26:58;;;;;;;31.73;22.08;;;7.90;99.90;;;7.90;80.64;102308.63;4954852;29;20184;-70
2022/03/15 02:29:27;;;;;;;32.03;22.92;;;7.90;99.90;;;7.96;80.53;102309.88;4954359;28;20220;-70
2022/03/15 02:31:57;;;;;;;27.63;21.05;;;7.90;99.90;;;7.77;80.87;102313.53;4953938;29;20554;-73
2022/03/15 02:34:27;;;;;;;30.17;22.52;;;7.80;99.90;;;7.80;81.02;102318.59;4953107;29;20212;-70
2022/03/15 02:36:56;;;;;;;35.30;25.60;;;7.80;99.90;;;7.70;81.17;102325.88;4954545;29;20283;-71
2022/03/15 02:39:26;;;;;;;35.58;24.30;;;7.70;99.90;;;7.72;81.02;102318.50;4953968;28;20718;-70
2022/03/15 02:41:56;;;;;;;31.30;22.42;;;7.70;99.90;;;7.57;81.58;102323.53;4937259;29;20617;-70
2022/03/15 02:44:24;;;;;;;39.30;25.60;;;7.60;99.90;;;7.62;81.77;102320.41;4936757;29;20199;-70
2022/03/15 02:46:54;;;;;;;33.03;24.63;;;7.60;99.90;;;7.62;81.88;102312.31;4953927;29;20263;-70
2022/03/15 02:49:22;;;;;;;34.50;23.55;;;7.60;99.90;;;7.53;81.76;102319.44;4953534;28;20290;-70
2022/03/15 02:51:52;;;;;;;36.20;23.25;;;7.60;99.90;;;7.62;81.50;102323.94;4953678;29;20228;-70
2022/03/15 02:54:21;;;;;;;33.42;25.60;;;7.60;99.90;;;7.55;82.04;102322.00;4936180;29;20196;-71
2022/03/15 02:56:51;;;;;;;38.35;24.55;;;7.50;99.90;;;7.57;81.76;102325.38;4953552;29;20204;-70
2022/03/15 02:59:20;;;;;;;37.58;26.83;;;7.50;99.90;;;7.55;81.75;102332.78;4953369;28;20208;-70
2022/03/15 03:01:50;;;;;;;32.65;22.85;;;7.50;99.90;;;7.59;81.95;102323.41;4972496;28;20200;-69
2022/03/15 03:04:22;;;;;;;33.75;23.85;;;7.50;99.90;;;7.46;81.78;102328.25;4977737;28;20175;-69
2022/03/15 03:06:52;;;;;;;38.65;23.42;;;7.50;99.90;;;7.35;82.01;102332.00;4978129;28;20168;-69
2022/03/15 03:09:21;;;;;;;33.50;22.90;;;7.40;99.90;;;7.15;82.60;102323.13;4977668;28;20235;-69
2022/03/15 03:11:51;;;;;;;38.65;25.02;;;7.30;99.90;;;7.07;83.72;102335.59;4978027;28;20169;-69
2022/03/15 03:14:21;;;;;;;32.60;22.42;;;7.20;99.90;;;7.13;83.38;102333.16;4974977;28;20184;-70
2022/03/15 03:16:50;;;;;;;38.60;26.98;;;7.20;99.90;;;7.13;83.59;102330.47;4956809;28;20195;-70
2022/03/15 03:19:19;;;;;;;36.80;24.88;;;7.20;99.90;;;7.22;83.39;102332.28;4956841;28;20571;-71
2022/03/15 03:21:50;;;;;;;30.92;22.35;;;7.30;99.90;;;7.15;83.70;102335.72;4957064;29;20188;-71
2022/03/15 03:24:24;;;;;;;37.95;25.02;;;7.20;99.90;;;7.26;83.39;102328.31;4940751;29;20200;-71
2022/03/15 03:26:54;;;;;;;33.47;23.75;;;7.20;99.90;;;7.32;82.69;102337.66;4955226;29;20180;-70
2022/03/15 03:29:24;;;;;;;34.42;25.10;;;7.30;99.90;;;7.27;82.80;102340.78;4952417;28;20235;-70
2022/03/15 03:31:55;;;;;;;34.92;23.20;;;7.30;99.90;;;7.42;82.54;102341.16;4952936;29;20236;-70
2022/03/15 03:34:23;;;;;;;37.85;25.23;;;7.30;99.90;;;7.31;82.66;102342.19;4952753;29;20678;-70
2022/03/15 03:36:52;;;;;;;32.20;23.17;;;7.30;99.90;;;7.27;82.58;102335.41;4952930;29;20172;-70
2022/03/15 03:39:30;;;;;;;33.33;23.10;;;7.30;99.90;;;7.28;82.29;102337.09;4952448;28;20246;-70
2022/03/15 03:42:01;;;;;;;32.78;24.38;;;7.30;99.90;;;7.12;82.24;102331.47;4935885;29;20199;-69
2022/03/15 03:44:31;;;;;;;36.95;26.83;;;7.20;99.90;;;6.98;82.70;102330.06;4953048;29;20176;-70
2022/03/15 03:47:00;;;;;;;37.42;25.73;;;7.10;99.90;;;6.94;82.84;102338.59;4952716;29;20524;-69
2022/03/15 03:49:29;;;;;;;37.97;25.50;;;7.10;99.90;;;6.79;83.55;102345.38;4952138;28;20712;-70
2022/03/15 03:51:59;;;;;;;36.92;24.85;;;7.00;99.90;;;6.66;83.89;102334.94;4952487;29;20636;-70
2022/03/15 03:54:29;;;;;;;35.63;25.02;;;6.90;99.90;;;6.46;84.26;102344.81;4952547;29;20220;-70
2022/03/15 03:56:58;;;;;;;44.88;28.13;;;6.70;99.90;;;6.35;84.51;102350.31;4952523;29;20632;-70
2022/03/15 04:02:33;;;;;;;42.97;29.02;;;6.50;99.90;;;6.34;85.68;102348.63;4908325;29;20217;-69
2022/03/15 04:05:03;;;;;;;42.50;28.85;;;6.50;99.90;;;6.50;85.56;102357.00;4917282;29;20221;-68
2022/03/15 04:07:32;;;;;;;46.65;30.42;;;6.60;99.90;;;6.57;85.70;102361.81;4916839;29;20205;-67
2022/03/15 04:10:01;;;;;;;45.85;29.00;;;6.60;99.90;;;6.65;85.40;102353.91;4916786;29;20169;-68
2022/03/15 04:12:29;;;;;;;41.08;29.38;;;6.70;99.90;;;6.72;85.87;102358.59;4916650;29;20249;-68
2022/03/15 04:15:00;;;;;;;41.28;28.88;;;6.70;99.90;;;6.85;84.82;102361.81;4974441;23;20231;-68
2022/03/15 04:17:29;;;;;;;45.22;28.88;;;6.80;99.90;;;6.82;84.31;102355.88;4938420;29;20223;-68
2022/03/15 04:19:59;;;;;;;49.05;29.42;;;6.80;99.90;;;6.71;83.88;102353.34;4953023;28;20184;-69
2022/03/15 04:22:29;;;;;;;44.38;30.02;;;6.80;99.90;;;6.47;84.54;102351.91;4953038;29;20247;-69
2022/03/15 04:24:58;;;;;;;44.53;30.65;;;6.60;99.90;;;6.39;84.88;102342.84;4953086;28;20259;-69
2022/03/15 04:27:26;;;;;;;42.92;31.23;;;6.60;99.90;;;6.27;85.30;102350.19;4952971;28;20204;-68
2022/03/15 04:29:55;;;;;;;49.72;31.92;;;6.50;99.90;;;6.39;85.08;102350.91;4953129;28;20188;-68
2022/03/15 04:32:24;;;;;;;54.22;31.30;;;6.50;99.90;;;6.46;85.53;102360.97;4952866;28;20691;-68
2022/03/15 04:34:53;;;;;;;49.45;31.52;;;6.50;99.90;;;6.52;85.85;102363.09;4953223;28;20211;-68
2022/03/15 04:37:24;;;;;;;49.17;31.90;;;6.50;99.90;;;6.65;85.76;102364.66;4953092;28;20184;-70
2022/03/15 04:39:53;;;;;;;45.55;33.70;;;6.60;99.90;;;6.65;85.27;102354.75;4953212;28;20203;-68
2022/03/15 04:42:22;;;;;;;46.67;31.88;;;6.70;99.90;;;6.82;85.01;102358.59;4953260;28;20179;-70
2022/03/15 04:44:53;;;;;;;54.92;30.38;;;6.70;99.90;;;6.76;84.48;102356.44;4953250;28;20657;-68
2022/03/15 04:47:22;;;;;;;45.22;31.58;;;6.70;99.90;;;6.87;84.47;102354.44;4953213;29;20284;-67
2022/03/15 04:49:51;;;;;;;42.50;30.15;;;6.80;99.90;;;6.76;84.44;102357.31;4953125;29;20184;-68
2022/03/15 04:52:20;;;;;;;46.80;28.70;;;6.80;99.90;;;6.74;84.28;102356.59;4953300;29;20536;-68
2022/03/15 04:54:51;;;;;;;43.72;31.42;;;6.80;99.90;;;6.63;84.24;102350.50;4953102;28;20239;-68
2022/03/15 04:57:20;;;;;;;47.17;32.13;;;6.70;99.90;;;6.66;84.51;102350.22;4953052;29;20192;-69
2022/03/15 04:59:49;;;;;;;42.58;30.08;;;6.70;99.90;;;6.46;84.44;102350.22;4953355;29;20212;-69
2022/03/15 05:02:18;;;;;;;44.63;30.95;;;6.60;99.90;;;6.32;84.58;102345.25;4953519;29;20184;-69
2022/03/15 05:04:47;;;;;;;41.25;30.73;;;6.50;99.90;;;6.15;85.16;102342.38;4953651;28;20592;-69
2022/03/15 05:07:16;;;;;;;46.53;31.60;;;6.40;99.90;;;6.03;85.15;102336.25;4953043;29;20194;-69
2022/03/15 05:12:29;;;;;;;51.53;31.85;;;6.20;99.90;;;6.14;85.42;102336.16;4952704;29;20262;-69
2022/03/15 05:14:58;;;;;;;51.05;31.17;;;6.20;99.90;;;5.95;85.72;102338.81;4935622;29;20306;-68
2022/03/15 05:17:28;;;;;;;44.90;32.38;;;6.10;99.90;;;5.83;85.97;102335.31;4953191;29;20588;-68
2022/03/15 05:19:58;;;;;;;47.70;33.80;;;6.10;99.90;;;5.69;86.47;102333.00;4952849;29;20231;-70
2022/03/15 05:22:27;;;;;;;53.63;33.13;;;5.90;99.90;;;5.86;86.51;102331.50;4953373;29;20192;-70
2022/03/15 05:24:56;;;;;;;48.65;33.78;;;6.00;99.90;;;5.76;86.34;102327.97;4953200;28;20251;-69
2022/03/15 05:27:25;;;;;;;54.78;35.55;;;5.90;99.90;;;5.79;86.89;102333.03;4953092;29;20564;-69
2022/03/15 05:29:55;;;;;;;47.83;33.15;;;5.90;99.90;;;5.83;86.93;102334.47;4935346;29;20192;-69
2022/03/15 05:32:25;;;;;;;56.45;34.90;;;6.00;99.90;;;5.83;86.66;102334.47;4952835;29;20431;-70
2022/03/15 05:34:54;;;;;;;59.70;37.45;;;6.00;99.90;;;5.84;86.78;102330.81;4952505;28;20263;-69
2022/03/15 05:37:23;;;;;;;47.78;31.98;;;6.00;99.90;;;5.76;87.15;102338.72;4953673;29;20611;-70
2022/03/15 05:39:52;;;;;;;52.80;33.33;;;6.00;99.90;;;5.77;86.98;102332.31;4954034;28;20212;-69
2022/03/15 05:42:21;;;;;;;47.63;34.15;;;5.90;99.90;;;6.01;86.95;102336.41;4956939;29;20275;-70
2022/03/15 05:44:50;;;;;;;48.97;32.97;;;6.10;99.90;;;6.09;86.23;102335.72;4956591;28;20208;-69
2022/03/15 05:47:21;;;;;;;51.58;35.03;;;6.20;99.90;;;6.08;86.68;102334.88;4956643;29;20227;-69
2022/03/15 05:49:50;;;;;;;54.42;33.92;;;6.20;99.90;;;6.12;86.39;102327.38;4956349;29;20184;-70
2022/03/15 05:52:19;;;;;;;47.35;32.30;;;6.20;99.90;;;6.22;86.42;102336.31;4958846;28;20212;-70
2022/03/15 05:54:48;;;;;;;51.33;36.10;;;6.30;99.90;;;6.31;86.01;102335.47;4956609;28;20308;-68
2022/03/15 05:57:17;;;;;;;48.38;32.58;;;6.30;99.90;;;6.41;85.96;102332.78;4956865;29;20192;-70
2022/03/15 05:59:46;;;;;;;53.00;33.20;;;6.40;99.90;;;6.49;85.17;102339.16;4959921;29;20254;-70
2022/03/15 06:02:15;;;;;;;48.03;33.28;;;6.50;99.90;;;6.50;84.35;102337.31;4972073;28;20191;-69
2022/03/15 06:04:45;;;;;;;49.53;34.10;;;6.40;99.90;;;6.55;84.27;102338.59;4976569;28;20214;-70
2022/03/15 06:07:15;;;;;;;54.22;35.20;;;6.50;99.90;;;6.59;83.59;102336.47;4977618;28;20673;-69
2022/03/15 06:09:45;;;;;;;41.42;30.02;;;6.50;99.90;;;6.61;83.01;102336.34;4977864;28;20164;-69
2022/03/15 06:12:14;;;;;;;45.13;31.58;;;6.50;99.90;;;6.69;82.63;102350.78;4976900;28;20283;-69
2022/03/15 06:14:43;;;;;;;47.10;33.08;;;6.60;99.90;;;6.54;82.72;102342.28;4981753;28;20262;-69
2022/03/15 06:17:12;;;;;;;50.38;32.85;;;6.50;99.90;;;6.68;82.66;102346.38;4980557;28;20184;-69
2022/03/15 06:19:41;;;;;;;47.35;34.10;;;6.60;99.90;;;6.71;82.36;102340.72;4981314;28;20207;-68
2022/03/15 06:22:11;;;;;;;45.85;32.53;;;6.60;99.90;;;6.67;82.06;102346.53;4964214;28;20192;-69
2022/03/15 06:24:40;;;;;;;43.35;31.77;;;6.60;99.90;;;6.61;82.83;102336.34;4960752;28;20238;-68
2022/03/15 06:27:09;;;;;;;48.15;31.77;;;6.50;99.90;;;6.67;82.35;102341.16;4961295;29;20277;-69
2022/03/15 06:29:38;;;;;;;59.08;36.50;;;6.60;99.90;;;6.90;81.41;102337.19;4961425;29;20401;-69
2022/03/15 06:32:09;;;;;;;45.40;34.30;;;6.70;99.90;;;6.83;81.38;102347.66;4959418;29;20196;-69
2022/03/15 06:34:50;;;;;;;46.92;32.50;;;6.70;99.90;;;6.93;81.06;102336.88;4961163;28;20208;-70
2022/03/15 06:37:22;;;;;;;45.13;32.92;;;6.80;99.90;;;6.88;80.75;102344.53;4960709;29;20669;-68
2022/03/15 06:39:51;;;;;;;45.78;32.08;;;6.80;99.90;;;7.08;80.58;102342.66;4961813;29;20219;-69
2022/03/15 06:42:20;;;;;;;43.35;32.80;;;6.90;99.90;;;7.05;80.52;102351.91;4961803;29;20180;-70
2022/03/15 06:44:50;;;;;;;46.45;31.10;;;6.90;99.90;;;7.11;79.96;102348.63;4960560;28;20764;-70
2022/03/15 06:47:19;;;;;;;44.03;32.05;;;6.90;99.90;;;7.24;80.05;102351.84;4960786;29;20226;-69
2022/03/15 06:49:48;;;;;;;44.20;31.75;;;7.00;99.90;;;7.45;79.50;102340.03;4955479;29;20243;-69
2022/03/15 06:52:17;;;;;;;40.40;30.52;;;7.20;99.90;;;7.66;78.50;102346.03;4955376;28;20192;-69
2022/03/15 06:54:47;;;;;;;42.00;33.10;;;7.30;99.90;;;7.77;77.90;102338.63;4955271;28;20286;-67
2022/03/15 06:57:18;;;;;;;44.30;29.65;;;7.50;99.90;;;7.75;77.71;102348.69;4955511;29;20267;-69
2022/03/15 06:59:47;;;;;;;41.65;29.85;;;7.50;99.90;;;7.91;77.72;102339.97;4955780;29;20212;-69
2022/03/15 07:02:16;;;;;;;44.22;30.30;;;7.70;99.90;;;8.01;77.22;102343.47;4955005;29;20207;-69
2022/03/15 07:04:46;;;;;;;46.25;33.38;;;7.80;99.90;;;8.18;76.43;102352.63;4955071;28;20677;-70
2022/03/15 07:07:19;;;;;;;46.13;36.88;;;7.90;99.90;;;8.26;76.02;102341.91;4955098;29;20657;-69
2022/03/15 07:09:50;;;;;;;49.55;36.75;;;8.00;99.90;;;8.39;75.44;102338.84;4954743;29;20191;-69
2022/03/15 07:12:19;;;;;;;53.35;36.15;;;8.10;99.90;;;8.49;74.89;102348.59;4955008;29;20195;-68
2022/03/15 07:14:50;;;;;;;47.15;36.08;;;8.20;99.90;;;8.56;74.67;102343.44;4954577;28;20228;-68
2022/03/15 07:17:19;;;;;;;51.33;35.92;;;8.30;99.90;;;8.56;74.93;102338.88;4953176;29;20215;-68
2022/03/15 07:19:48;;;;;;;48.97;33.75;;;8.30;99.90;;;8.80;74.53;102348.22;4951527;29;20200;-69
2022/03/15 07:22:17;;;;;;;43.65;30.13;;;8.40;99.90;;;8.88;73.78;102351.81;4953667;29;20278;-69
2022/03/15 07:24:46;;;;;;;45.58;30.60;;;8.60;99.90;;;8.90;73.23;102349.81;4953872;28;20701;-69
2022/03/15 07:27:17;;;;;;;44.33;32.53;;;8.60;99.90;;;8.70;73.66;102349.16;4951068;29;20673;-69
2022/03/15 07:29:46;;;;;;;48.40;34.05;;;8.60;99.90;;;8.90;73.46;102349.81;4950098;29;20188;-69
2022/03/15 07:32:15;;;;;;;39.83;29.15;;;8.70;99.90;;;9.12;72.61;102354.72;4954346;28;20239;-69
2022/03/15 07:34:44;;;;;;;42.63;28.33;;;8.90;99.90;;;9.09;73.00;102365.00;4954206;28;20218;-71
2022/03/15 07:37:13;;;;;;;43.78;29.95;;;8.90;99.90;;;9.15;72.80;102362.50;4943679;29;20208;-69
2022/03/15 07:39:44;;;;;;;52.85;32.70;;;8.90;99.90;;;9.09;72.39;102365.84;4953083;29;20214;-70
2022/03/15 07:42:13;;;;;;;40.10;31.23;;;8.90;99.90;;;9.09;72.52;102371.25;4937497;29;20577;-70
2022/03/15 07:44:44;;;;;;;42.15;31.20;;;8.90;99.90;;;9.06;72.15;102365.28;4952874;28;20212;-69
2022/03/15 07:47:14;;;;;;;48.00;32.22;;;9.00;99.90;;;9.09;72.45;102363.16;4952792;29;20188;-69
2022/03/15 07:49:47;;;;;;;46.75;31.55;;;8.90;99.90;;;9.24;72.09;102349.91;4952675;29;20191;-69
2022/03/15 07:52:16;;;;;;;45.47;29.77;;;9.00;99.90;;;9.47;71.62;102361.03;4952753;29;20653;-69
2022/03/15 07:54:46;;;;;;;43.45;30.42;;;9.20;99.90;;;9.53;71.40;102358.56;4953056;28;20215;-69
2022/03/15 07:57:15;;;;;;;46.90;32.10;;;9.30;99.90;;;9.68;70.84;102356.09;4953035;29;20321;-69
2022/03/15 07:59:46;;;;;;;38.42;30.48;;;9.50;99.90;;;9.75;70.59;102359.84;4953491;29;20579;-70
2022/03/15 08:02:15;;;;;;;43.08;29.42;;;9.60;99.90;;;9.73;70.32;102364.53;4952158;28;20192;-68
2022/03/15 08:04:44;;;;;;;40.53;31.10;;;9.60;99.90;;;9.51;70.48;102359.72;4952650;28;20235;-69
2022/03/15 08:07:13;;;;;;;44.92;33.67;;;9.50;99.90;;;9.35;70.85;102359.59;4952254;29;20210;-66
2022/03/15 08:09:42;;;;;;;40.92;30.38;;;9.40;99.90;;;9.39;71.22;102352.88;4933921;29;20192;-68
2022/03/15 08:12:11;;;;;;;44.47;31.98;;;9.30;99.90;;;9.35;71.42;102354.19;4965517;28;20222;-69
2022/03/15 08:14:40;;;;;;;45.65;32.13;;;9.20;99.90;;;9.39;71.31;102355.59;4954698;28;20230;-69
2022/03/15 08:17:11;;;;;;;42.80;32.67;;;9.20;99.90;;;9.69;70.26;102346.97;4972647;28;20179;-69
2022/03/15 08:19:40;;;;;;;37.72;28.83;;;9.40;99.90;;;10.00;69.68;102350.84;4972593;28;20207;-68
2022/03/15 08:22:09;;;;;;;41.60;31.55;;;9.60;99.90;;;9.94;69.72;102334.41;4972912;28;20675;-68
2022/03/15 08:24:38;;;;;;;39.47;30.30;;;9.60;99.90;;;10.24;69.07;102333.03;4955141;28;20215;-69
2022/03/15 08:27:07;;;;;;;42.83;31.08;;;9.80;99.90;;;10.14;69.00;102340.38;4972996;28;20819;-67
2022/03/15 08:29:36;;;;;;;47.92;31.75;;;9.90;99.90;;;10.08;69.58;102331.06;4973371;28;20644;-68
2022/03/15 08:32:07;;;;;;;50.25;37.97;;;9.90;99.90;;;10.36;69.01;102334.41;4952224;28;20435;-69
2022/03/15 08:34:38;;;;;;;45.40;34.83;;;10.00;99.90;;;10.43;68.61;102324.59;4954033;28;20223;-69
2022/03/15 08:37:12;;;;;;;45.67;34.10;;;10.00;99.90;;;10.83;66.98;102330.06;4953406;29;20196;-69
2022/03/15 08:39:42;;;;;;;49.55;33.72;;;10.40;99.90;;;11.10;66.63;102328.00;4951401;29;20892;-69
2022/03/15 08:42:11;;;;;;;49.38;32.40;;;10.70;99.90;;;11.11;66.50;102321.56;4952369;29;20222;-71
2022/03/15 08:44:40;;;;;;;44.78;33.42;;;10.70;99.40;;;11.25;66.34;102326.28;4952227;28;20208;-70
2022/03/15 08:47:09;;;;;;;41.25;32.28;;;10.80;98.20;;;11.27;66.03;102325.13;4952404;29;20195;-69
2022/03/15 08:49:41;;;;;;;46.42;32.95;;;11.00;96.00;;;11.00;66.83;102316.50;4952670;29;20275;-67
2022/03/15 08:52:10;;;;;;;50.23;34.40;;;10.90;95.90;;;11.04;66.83;102323.25;4953638;29;20227;-69
2022/03/15 08:54:39;;;;;;;43.85;34.25;;;10.90;96.40;;;10.98;66.64;102313.13;4952810;28;20459;-69
2022/03/15 08:57:08;;;;;;;46.97;32.47;;;10.90;95.00;;;11.01;66.84;102312.78;4954443;29;20235;-70
2022/03/15 08:59:37;;;;;;;52.30;36.28;;;10.70;96.40;;;11.32;66.09;102322.75;4953748;29;20181;-69
2022/03/15 09:02:09;;;;;;;46.70;33.22;;;10.90;96.10;;;11.28;65.79;102320.50;4953247;29;20232;-69
2022/03/15 09:04:40;;;;;;;50.60;33.10;;;11.00;95.20;;;11.37;65.99;102324.94;4953417;28;20223;-71
2022/03/15 09:07:09;;;;;;;44.03;32.10;;;11.10;95.30;;;11.55;65.43;102317.41;4952960;29;20279;-69
2022/03/15 09:09:40;;;;;;;47.30;34.22;;;11.20;93.90;;;11.38;65.72;102310.34;4957409;29;20555;-69
2022/03/15 09:12:10;;;;;;;46.27;35.00;;;11.20;92.20;;;11.62;65.69;102317.56;4953659;29;20239;-70
2022/03/15 09:14:39;;;;;;;51.73;35.83;;;11.30;93.90;;;11.76;64.76;102314.97;4954115;28;20513;-70
2022/03/15 09:17:08;;;;;;;43.60;31.23;;;11.60;90.30;;;11.77;64.86;102305.84;4957374;29;20758;-70
2022/03/15 09:19:40;;;;;;;41.03;29.07;;;11.50;90.30;;;12.12;64.19;102315.34;4939831;29;20455;-69
2022/03/15 09:22:15;;;;;;;44.70;31.20;;;11.70;90.20;;;12.05;63.79;102310.81;4957108;29;20459;-70
2022/03/15 09:24:45;;;;;;;36.97;30.37;;;11.80;82.20;;;12.31;63.42;102308.59;4956821;28;20458;-70
2022/03/15 09:27:14;;;;;;;45.97;32.47;;;11.90;81.40;;;12.29;63.05;102305.25;4961857;28;20458;-70
2022/03/15 09:29:43;;;;;;;42.33;30.20;;;12.00;76.70;;;12.00;63.43;102307.78;4965769;28;20443;-74
2022/03/15 09:32:12;;;;;;;38.73;27.77;;;11.90;72.50;;;12.21;63.01;102308.00;4961584;28;20435;-69
2022/03/15 09:34:41;;;;;;;35.93;27.80;;;12.00;71.00;;;12.32;61.94;102299.44;4968050;28;20536;-71
2022/03/15 09:37:14;;;;;;;36.57;29.80;;;12.00;62.70;;;12.37;62.04;102307.06;4974929;28;20462;-68
2022/03/15 09:39:44;;;;;;;37.43;26.27;;;12.00;64.60;;;12.27;62.03;102301.00;4974601;28;20522;-70
2022/03/15 09:42:13;;;;;;;40.03;28.67;;;12.00;60.90;;;12.66;61.71;102300.91;4974345;28;20572;-69
2022/03/15 09:44:43;;;;;;;42.37;26.73;;;12.30;62.90;;;12.87;60.63;102307.34;4974190;28;20514;-68
2022/03/15 09:47:17;;;;;;;37.67;26.97;;;12.50;55.10;;;12.72;60.96;102297.47;4973949;28;20431;-69
2022/03/15 09:49:47;;;;;;;35.67;26.00;;;12.40;53.10;;;12.62;61.11;102293.13;4974035;28;20446;-69
2022/03/15 09:52:21;;;;;;;35.10;26.10;;;12.40;53.30;;;12.91;60.74;102288.81;4973686;28;20810;-70
2022/03/15 09:54:51;;;;;;;30.10;23.80;;;12.50;53.20;;;12.70;59.83;102294.06;4974182;28;20517;-69
2022/03/15 09:57:24;;;;;;;36.80;24.83;;;12.40;47.50;;;13.12;59.71;102294.41;4974104;28;20518;-69
2022/03/15 09:59:53;;;;;;;29.03;24.73;;;12.60;49.20;;;12.78;59.88;102289.41;4974416;28;20431;-70
2022/03/15 10:02:23;;;;;;;33.70;24.63;;;12.40;46.30;;;13.13;58.88;102284.38;4974394;28;20455;-71
2022/03/15 10:04:52;;;;;;;35.77;24.50;;;12.70;44.40;;;12.98;59.04;102287.88;4973939;28;20450;-71
2022/03/15 10:07:22;;;;;;;33.37;26.03;;;12.90;42.30;;;12.84;59.64;102277.81;4968497;28;20914;-70
2022/03/15 10:09:52;;;;;;;37.13;24.83;;;12.60;42.50;;;13.10;59.25;102273.84;4950332;29;20515;-69
2022/03/15 10:12:21;;;;;;;37.53;26.73;;;12.70;43.90;;;13.23;58.54;102272.19;4954352;29;20838;-70
2022/03/15 10:14:50;;;;;;;32.47;25.53;;;12.90;41.40;;;13.41;58.42;102272.66;4962106;23;20638;-69
2022/03/15 10:17:19;;;;;;;33.67;24.80;;;13.10;40.40;;;13.37;58.66;102278.66;4966136;28;20489;-69
2022/03/15 10:19:52;;;;;;;30.47;23.03;;;13.10;38.80;;;13.76;57.38;102279.22;4954436;28;20467;-67
2022/03/15 10:22:26;;;;;;;25.30;20.07;;;13.30;38.00;;;13.67;56.75;102274.06;4954952;28;20511;-69
2022/03/15 10:24:57;;;;;;;30.30;22.80;;;13.30;33.10;;;13.71;56.28;102269.94;4962357;28;20451;-70
2022/03/15 10:27:26;;;;;;;27.53;20.53;;;13.40;32.20;;;13.86;56.70;102262.59;4964828;28;20911;-68